Time;durP1;ratioP1;P1;durP2;ratioP2;P2;SDS_P1;SDS_P2;PMS_P1;PMS_P2;Temp;Humidity;BMP_temperature;BMP_pressure;BME280_temperature;BME280_humidity;BME280_pressure;Samples;Min_cycle;Max_cycle;Signal;HPM_P1;HPM_P2
2023/07/12 00:02:24;;;;;;;2.97;1.20;;;20.40;99.90;;;;;;5044525;28;20025;-41
2023/07/12 00:04:50;;;;;;;2.38;1.17;;;20.30;99.90;;;;;;5044093;28;20604;-42
2023/07/12 00:07:15;;;;;;;2.58;1.20;;;20.30;99.90;;;;;;5044862;28;20048;-41
2023/07/12 00:09:41;;;;;;;1.00;0.90;;;20.30;99.90;;;;;;5044508;28;20029;-41
2023/07/12 00:12:07;;;;;;;1.95;1.02;;;20.40;99.90;;;;;;5043723;28;20655;-41
2023/07/12 00:14:33;;;;;;;1.98;1.08;;;20.40;99.90;;;;;;5034390;28;20028;-41
2023/07/12 00:16:58;;;;;;;1.20;1.00;;;20.40;99.90;;;;;;5044278;28;20493;-42
2023/07/12 00:19:24;;;;;;;2.45;1.10;;;20.40;99.90;;;;;;5044264;28;20044;-41
2023/07/12 00:21:49;;;;;;;1.75;1.00;;;20.40;99.90;;;;;;5045006;28;20465;-42
2023/07/12 00:24:16;;;;;;;1.25;0.98;;;20.40;99.90;;;;;;5044869;28;20017;-41
2023/07/12 00:26:42;;;;;;;1.73;1.10;;;20.30;99.90;;;;;;5044248;28;20029;-40
2023/07/12 00:29:08;;;;;;;1.20;0.80;;;20.20;99.90;;;;;;5044464;28;20461;-41
2023/07/12 00:31:35;;;;;;;1.25;1.10;;;20.20;99.90;;;;;;5044639;28;20147;-41
2023/07/12 00:34:00;;;;;;;1.83;1.20;;;20.00;99.90;;;;;;5043493;28;20128;-42
2023/07/12 00:36:28;;;;;;;1.35;1.00;;;20.00;99.90;;;;;;5045099;28;20048;-42
2023/07/12 00:38:54;;;;;;;1.75;0.95;;;19.90;99.90;;;;;;5045088;28;20040;-42
2023/07/12 00:41:47;;;;;;;1.83;1.23;;;19.90;99.90;;;;;;5043974;28;20028;-42
2023/07/12 00:44:25;;;;;;;2.60;1.27;;;19.80;99.90;;;;;;5044286;28;20511;-43
2023/07/12 00:46:54;;;;;;;1.55;1.30;;;19.80;99.90;;;;;;5043305;28;20032;-42
2023/07/12 00:49:20;;;;;;;1.77;1.48;;;19.80;99.90;;;;;;5046665;28;20385;-42
2023/07/12 00:51:52;;;;;;;2.85;1.40;;;19.80;99.90;;;;;;5048542;28;20472;-41
2023/07/12 00:54:23;;;;;;;1.70;1.30;;;19.80;99.90;;;;;;5047496;28;20021;-42
2023/07/12 00:56:48;;;;;;;1.63;1.20;;;19.80;99.90;;;;;;5048319;28;20047;-42
2023/07/12 00:59:24;;;;;;;1.92;1.27;;;19.80;99.90;;;;;;5047873;28;20024;-42
2023/07/12 01:01:53;;;;;;;2.22;1.20;;;19.80;99.90;;;;;;5047141;28;20047;-42
2023/07/12 01:04:26;;;;;;;2.22;1.30;;;19.80;99.90;;;;;;5047743;28;20049;-41
2023/07/12 01:06:52;;;;;;;9.82;1.60;;;19.70;99.90;;;;;;5047834;28;20055;-42
2023/07/12 01:09:19;;;;;;;2.03;1.30;;;19.70;99.90;;;;;;5046561;28;20431;-42
2023/07/12 01:11:46;;;;;;;2.40;1.40;;;19.70;99.90;;;;;;5047814;28;20028;-42
2023/07/12 01:14:15;;;;;;;2.60;1.48;;;19.60;99.90;;;;;;5047761;28;20028;-42
2023/07/12 01:16:47;;;;;;;4.53;1.90;;;19.60;99.90;;;;;;5036877;28;20132;-43
2023/07/12 01:19:13;;;;;;;;;;;19.60;99.90;;;;;;5048075;28;20503;-42
2023/07/12 01:21:48;;;;;;;4.55;1.77;;;19.50;99.90;;;;;;5046852;28;19938;-42
2023/07/12 01:24:14;;;;;;;4.47;1.90;;;19.40;99.90;;;;;;5048172;28;20032;-42
2023/07/12 01:26:43;;;;;;;5.50;2.03;;;19.40;99.90;;;;;;5047698;28;20498;-42
2023/07/12 01:29:10;;;;;;;3.72;2.20;;;19.40;99.90;;;;;;5046565;28;20035;-42
2023/07/12 01:31:37;;;;;;;5.30;2.33;;;19.30;99.90;;;;;;5047465;28;20028;-41
2023/07/12 01:34:03;;;;;;;3.78;1.70;;;19.20;99.90;;;;;;5047321;28;20029;-42
2023/07/12 01:36:30;;;;;;;3.47;1.80;;;19.20;99.90;;;;;;5047315;28;20083;-41
2023/07/12 01:38:58;;;;;;;2.75;1.75;;;19.20;99.90;;;;;;5048245;28;20132;-42
2023/07/12 01:41:24;;;;;;;2.70;1.60;;;19.20;99.90;;;;;;5047246;28;20032;-42
2023/07/12 01:43:51;;;;;;;4.38;2.30;;;19.10;99.90;;;;;;5046985;28;20029;-42
2023/07/12 01:46:16;;;;;;;5.63;2.47;;;19.10;99.90;;;;;;5046807;28;20032;-42
2023/07/12 01:48:45;;;;;;;4.97;2.42;;;19.10;99.90;;;;;;5047220;28;20029;-42
2023/07/12 01:51:12;;;;;;;5.05;2.10;;;19.00;99.90;;;;;;5046387;28;20036;-42
2023/07/12 01:53:37;;;;;;;5.43;2.13;;;19.00;99.90;;;;;;5047390;28;20029;-42
2023/07/12 01:56:04;;;;;;;4.22;2.00;;;18.90;99.90;;;;;;5046901;28;20435;-43
2023/07/12 01:58:30;;;;;;;5.57;2.33;;;18.90;99.90;;;;;;5046866;28;20020;-42
2023/07/12 02:00:56;;;;;;;3.72;1.90;;;18.80;99.90;;;;;;5045818;28;20048;-42
2023/07/12 02:03:22;;;;;;;5.22;1.90;;;18.80;99.90;;;;;;5046657;28;20576;-42
2023/07/12 02:05:48;;;;;;;5.63;2.05;;;18.80;99.90;;;;;;5046020;28;20031;-42
2023/07/12 02:08:14;;;;;;;3.47;1.73;;;18.80;99.90;;;;;;5046561;28;20041;-42
2023/07/12 02:10:41;;;;;;;3.88;1.58;;;18.80;99.90;;;;;;5045931;28;20036;-42
2023/07/12 02:13:06;;;;;;;2.80;1.40;;;18.80;99.90;;;;;;5046580;28;20021;-42
2023/07/12 02:15:32;;;;;;;5.85;1.50;;;18.80;99.90;;;;;;5046980;28;20033;-42
2023/07/12 02:17:58;;;;;;;2.50;1.42;;;18.80;99.90;;;;;;5045903;28;20029;-42
2023/07/12 02:20:24;;;;;;;3.10;1.45;;;18.90;99.90;;;;;;5046566;28;20052;-41
2023/07/12 02:22:50;;;;;;;3.15;1.67;;;18.90;99.90;;;;;;5046024;28;20029;-41
2023/07/12 02:25:23;;;;;;;2.22;1.48;;;18.90;99.90;;;;;;5045920;28;20025;-42
2023/07/12 02:27:49;;;;;;;3.40;1.73;;;19.00;99.90;;;;;;5046565;28;20064;-41
2023/07/12 02:30:18;;;;;;;2.88;1.55;;;19.00;99.90;;;;;;5046255;28;20021;-42
2023/07/12 02:32:45;;;;;;;4.53;1.77;;;19.00;99.90;;;;;;5045623;28;20033;-43
2023/07/12 02:35:10;;;;;;;4.18;1.65;;;19.00;99.90;;;;;;5046104;28;20028;-41
2023/07/12 02:37:36;;;;;;;3.38;1.70;;;19.00;99.90;;;;;;5045918;28;20028;-41
2023/07/12 02:40:07;;;;;;;4.43;1.70;;;19.00;99.90;;;;;;5046028;28;20439;-41
2023/07/12 02:42:33;;;;;;;4.53;1.60;;;18.90;99.90;;;;;;5045831;28;20118;-43
2023/07/12 02:44:59;;;;;;;3.15;1.70;;;18.90;99.90;;;;;;5045768;28;20037;-42
2023/07/12 02:47:24;;;;;;;4.57;1.90;;;18.90;99.90;;;;;;5045930;28;20033;-42
2023/07/12 02:49:50;;;;;;;3.25;1.63;;;18.80;99.90;;;;;;5046311;28;20379;-41
2023/07/12 02:52:22;;;;;;;4.05;1.40;;;18.80;99.90;;;;;;5045495;28;20032;-42
2023/07/12 02:54:48;;;;;;;3.22;1.70;;;18.80;99.90;;;;;;5044969;28;20491;-42
2023/07/12 02:57:15;;;;;;;4.15;1.77;;;18.70;99.90;;;;;;5045770;28;20037;-42
2023/07/12 02:59:40;;;;;;;3.63;1.60;;;18.70;99.90;;;;;;5045663;28;20013;-41
2023/07/12 03:02:11;;;;;;;4.03;1.70;;;18.60;99.90;;;;;;5044978;28;20032;-40
2023/07/12 03:04:36;;;;;;;3.60;1.60;;;18.60;99.90;;;;;;5045522;28;20476;-41
2023/07/12 03:07:05;;;;;;;3.38;1.38;;;18.70;99.90;;;;;;5044574;28;20056;-41
2023/07/12 03:09:31;;;;;;;2.00;1.70;;;18.70;99.90;;;;;;5045704;28;20111;-41
2023/07/12 03:11:57;;;;;;;3.17;1.23;;;18.70;99.90;;;;;;5045774;28;20221;-42
2023/07/12 03:14:24;;;;;;;2.38;1.30;;;18.70;99.90;;;;;;5044678;28;20492;-41
2023/07/12 03:16:50;;;;;;;3.22;1.33;;;18.60;99.90;;;;;;5045334;28;20040;-41
2023/07/12 03:19:16;;;;;;;2.63;1.60;;;18.60;99.90;;;;;;5045337;28;20024;-42
2023/07/12 03:21:42;;;;;;;2.28;1.63;;;18.60;99.90;;;;;;5044583;28;20029;-41
2023/07/12 03:24:09;;;;;;;4.25;1.55;;;18.60;99.90;;;;;;5044797;28;20234;-41
2023/07/12 03:26:37;;;;;;;3.88;1.80;;;18.60;99.90;;;;;;5044890;28;20085;-41
2023/07/12 03:29:04;;;;;;;5.00;1.90;;;18.60;99.90;;;;;;5044449;28;20091;-42
2023/07/12 03:31:30;;;;;;;4.35;1.67;;;18.60;99.90;;;;;;5045322;28;20032;-42
2023/07/12 03:33:56;;;;;;;3.88;1.52;;;18.60;99.90;;;;;;5045857;28;20013;-41
2023/07/12 03:36:28;;;;;;;5.57;2.05;;;18.60;99.90;;;;;;5044270;28;20036;-41
2023/07/12 03:38:54;;;;;;;4.47;1.88;;;18.60;99.90;;;;;;5044876;28;20068;-42
2023/07/12 03:41:21;;;;;;;5.63;2.10;;;18.50;99.90;;;;;;5045356;28;20040;-42
2023/07/12 03:43:47;;;;;;;3.58;1.70;;;18.50;99.90;;;;;;5043871;28;20063;-41
2023/07/12 03:46:13;;;;;;;7.15;1.92;;;18.50;99.90;;;;;;5041102;28;20064;-41
2023/07/12 03:48:39;;;;;;;3.42;1.88;;;18.40;99.90;;;;;;5044961;28;20040;-41
2023/07/12 03:51:06;;;;;;;2.47;1.65;;;18.40;99.90;;;;;;5043899;28;20370;-41
2023/07/12 03:53:31;;;;;;;3.33;1.95;;;18.40;99.90;;;;;;5044709;28;20032;-41
2023/07/12 03:56:00;;;;;;;4.50;2.58;;;18.40;99.90;;;;;;5045429;28;20041;-41
2023/07/12 03:58:32;;;;;;;4.45;2.67;;;18.40;99.90;;;;;;5045772;28;20031;-42
2023/07/12 04:01:03;;;;;;;5.07;2.22;;;18.30;99.90;;;;;;5044797;28;20033;-42
2023/07/12 04:03:29;;;;;;;5.32;2.50;;;18.30;99.90;;;;;;5044615;28;20091;-41
2023/07/12 04:05:54;;;;;;;5.03;2.42;;;18.20;99.90;;;;;;5045185;28;20029;-43
2023/07/12 04:08:20;;;;;;;4.47;2.72;;;18.20;99.90;;;;;;5044809;28;20052;-42
2023/07/12 04:10:53;;;;;;;6.13;3.10;;;18.20;99.90;;;;;;5043983;28;20404;-42
2023/07/12 04:13:18;;;;;;;;;;;18.20;99.90;;;;;;5045501;28;20029;-42
2023/07/12 04:15:47;;;;;;;3.22;2.65;;;18.20;99.90;;;;;;5044458;28;20649;-42
2023/07/12 04:18:12;;;;;;;3.72;2.35;;;18.20;99.90;;;;;;5043819;28;20477;-42
2023/07/12 04:20:38;;;;;;;5.00;2.70;;;18.20;99.90;;;;;;5044404;28;20039;-42
2023/07/12 04:23:05;;;;;;;4.07;2.60;;;18.20;99.90;;;;;;5045425;28;20064;-42
2023/07/12 04:25:32;;;;;;;4.22;3.08;;;18.20;99.90;;;;;;5047588;28;20075;-42
2023/07/12 04:27:58;;;;;;;5.63;3.15;;;18.20;99.90;;;;;;5048582;28;20422;-42
2023/07/12 04:30:23;;;;;;;5.55;4.25;;;18.20;99.90;;;;;;5048907;28;20044;-41
2023/07/12 04:32:52;;;;;;;5.20;3.92;;;18.20;99.90;;;;;;5048116;28;20023;-42
2023/07/12 04:35:19;;;;;;;6.25;4.43;;;18.20;99.90;;;;;;5048224;28;20029;-41
2023/07/12 04:37:46;;;;;;;6.13;5.38;;;18.20;99.90;;;;;;5047560;28;20060;-42
2023/07/12 04:40:15;;;;;;;8.95;6.10;;;18.10;99.90;;;;;;5047922;28;20481;-42
2023/07/12 04:42:41;;;;;;;7.43;6.63;;;18.10;99.90;;;;;;5048520;28;20033;-42
2023/07/12 04:45:09;;;;;;;6.75;5.63;;;18.10;99.90;;;;;;5049021;28;20032;-42
2023/07/12 04:47:35;;;;;;;7.93;5.38;;;18.10;99.90;;;;;;5047665;28;20025;-42
2023/07/12 04:50:09;;;;;;;8.52;5.80;;;18.20;99.90;;;;;;5047945;28;20443;-43
2023/07/12 04:52:35;;;;;;;6.97;5.95;;;18.20;99.90;;;;;;5047968;28;20021;-43
2023/07/12 04:55:18;;;;;;;6.78;5.25;;;18.20;99.90;;;;;;5048086;28;20033;-42
2023/07/12 04:57:44;;;;;;;9.20;6.40;;;18.20;99.90;;;;;;5047960;28;20047;-42
2023/07/12 05:00:13;;;;;;;8.05;6.20;;;18.30;99.90;;;;;;5048353;28;20033;-42
2023/07/12 05:02:39;;;;;;;8.40;7.28;;;18.30;99.90;;;;;;5047397;28;20029;-41
2023/07/12 05:05:11;;;;;;;9.18;5.70;;;18.30;99.90;;;;;;5048186;28;20051;-42
2023/07/12 05:07:40;;;;;;;;;;;18.20;99.90;;;;;;5046850;28;20106;-42
2023/07/12 05:10:06;;;;;;;8.73;7.63;;;18.30;99.90;;;;;;5047404;28;19908;-42
2023/07/12 05:12:33;;;;;;;10.57;7.85;;;18.30;99.90;;;;;;5047585;28;20108;-42
2023/07/12 05:14:58;;;;;;;11.20;7.80;;;18.20;99.90;;;;;;5047186;28;20072;-42
2023/07/12 05:17:25;;;;;;;9.18;7.55;;;18.20;99.90;;;;;;5047302;28;20091;-42
2023/07/12 05:19:50;;;;;;;10.35;7.90;;;18.20;99.90;;;;;;5045321;28;20033;-42
2023/07/12 05:22:18;;;;;;;10.43;7.00;;;18.30;99.90;;;;;;5045458;28;20032;-42
2023/07/12 05:24:44;;;;;;;10.52;7.68;;;18.30;99.90;;;;;;5046623;28;20028;-42
2023/07/12 05:27:09;;;;;;;10.48;7.32;;;18.30;99.90;;;;;;5046820;28;20021;-42
2023/07/12 05:29:35;;;;;;;9.32;7.03;;;18.30;99.90;;;;;;5045456;28;20029;-41
2023/07/12 05:32:00;;;;;;;9.40;7.15;;;18.40;99.90;;;;;;5046723;28;20419;-41
2023/07/12 05:34:26;;;;;;;9.50;7.25;;;18.40;99.90;;;;;;5046440;28;20028;-41
2023/07/12 05:36:52;;;;;;;10.05;7.32;;;18.50;99.90;;;;;;5046333;28;20536;-41
2023/07/12 05:39:17;;;;;;;7.47;6.70;;;18.50;99.90;;;;;;5046223;28;20087;-42
2023/07/12 05:41:43;;;;;;;9.48;6.72;;;18.50;99.90;;;;;;5046114;28;20063;-41
2023/07/12 05:44:08;;;;;;;7.22;5.47;;;18.50;99.90;;;;;;5046074;28;20759;-42
2023/07/12 05:46:34;;;;;;;10.13;6.78;;;18.50;99.90;;;;;;5046128;28;20120;-41
2023/07/12 05:49:02;;;;;;;9.57;5.80;;;18.50;99.90;;;;;;5045326;28;20052;-41
2023/07/12 05:51:27;;;;;;;8.93;6.20;;;18.50;99.90;;;;;;5044833;28;20028;-42
2023/07/12 05:53:53;;;;;;;7.28;4.90;;;18.50;99.90;;;;;;5045617;28;20047;-42
2023/07/12 05:56:19;;;;;;;5.72;4.25;;;18.60;99.90;;;;;;5045434;28;20806;-43
2023/07/12 05:58:44;;;;;;;6.65;4.68;;;18.60;99.90;;;;;;5046171;28;20437;-43
2023/07/12 06:01:10;;;;;;;7.20;4.60;;;18.70;99.90;;;;;;5046083;28;20037;-40
2023/07/12 06:03:36;;;;;;;6.63;4.10;;;18.60;99.90;;;;;;5045735;28;20630;-41
2023/07/12 06:06:06;;;;;;;9.65;4.30;;;18.70;99.90;;;;;;5045781;28;20028;-42
2023/07/12 06:08:32;;;;;;;4.95;3.67;;;18.70;99.90;;;;;;5045497;28;20083;-42
2023/07/12 06:10:57;;;;;;;8.23;4.22;;;18.70;99.90;;;;;;5045811;28;20057;-42
2023/07/12 06:13:23;;;;;;;7.28;4.22;;;18.60;99.90;;;;;;5046294;28;20025;-42
2023/07/12 06:15:48;;;;;;;8.50;3.92;;;18.60;99.90;;;;;;5046033;28;20077;-42
2023/07/12 06:18:14;;;;;;;6.25;4.28;;;18.60;99.90;;;;;;5046352;28;20580;-42
2023/07/12 06:20:40;;;;;;;9.15;4.88;;;18.60;99.90;;;;;;5045654;28;20431;-41
2023/07/12 06:23:05;;;;;;;10.23;4.72;;;18.60;99.90;;;;;;5046321;28;20115;-42
2023/07/12 06:25:31;;;;;;;6.63;4.05;;;18.70;99.90;;;;;;5045615;28;20079;-42
2023/07/12 06:27:56;;;;;;;8.60;4.53;;;18.70;99.90;;;;;;5046237;28;20055;-42
2023/07/12 06:30:22;;;;;;;8.18;3.80;;;18.80;99.90;;;;;;5046211;28;20552;-41
2023/07/12 06:32:48;;;;;;;7.97;4.25;;;18.90;99.90;;;;;;5046020;28;20035;-42
2023/07/12 06:35:17;;;;;;;8.02;4.15;;;19.00;99.90;;;;;;5045540;28;20052;-42
2023/07/12 06:37:45;;;;;;;8.38;4.25;;;19.10;99.90;;;;;;5045796;28;20041;-42
2023/07/12 06:40:13;;;;;;;7.03;3.70;;;19.20;99.90;;;;;;5045859;28;20023;-42
2023/07/12 06:42:39;;;;;;;9.73;4.20;;;19.30;99.90;;;;;;5045818;28;20025;-42
2023/07/12 06:45:05;;;;;;;11.40;3.88;;;19.40;99.90;;;;;;5045025;28;20019;-42
2023/07/12 06:47:32;;;;;;;7.07;3.78;;;19.50;99.90;;;;;;5045328;28;20099;-42
2023/07/12 06:50:08;;;;;;;8.63;3.67;;;19.60;99.90;;;;;;5045767;28;20025;-42
2023/07/12 06:52:34;;;;;;;12.80;4.55;;;19.60;99.90;;;;;;5041797;28;20036;-42
2023/07/12 06:54:59;;;;;;;6.05;3.47;;;19.60;99.90;;;;;;5045296;28;20751;-41
2023/07/12 06:57:25;;;;;;;6.20;3.40;;;19.60;99.90;;;;;;5045833;28;20063;-41
2023/07/12 06:59:50;;;;;;;5.53;2.88;;;19.50;99.90;;;;;;5045129;28;20116;-41
2023/07/12 07:02:16;;;;;;;5.35;2.80;;;19.50;99.90;;;;;;5045803;28;20025;-42
2023/07/12 07:04:41;;;;;;;7.57;3.25;;;19.40;99.90;;;;;;5045786;28;20503;-42
2023/07/12 07:07:07;;;;;;;5.63;3.00;;;19.40;99.90;;;;;;5045038;28;20522;-41
2023/07/12 07:09:39;;;;;;;5.57;3.50;;;19.40;99.90;;;;;;5046154;28;20025;-41
2023/07/12 07:12:07;;;;;;;6.70;3.33;;;19.50;99.90;;;;;;5045560;28;20021;-41
2023/07/12 07:14:33;;;;;;;3.58;2.70;;;19.50;99.90;;;;;;5045321;28;20021;-41
2023/07/12 07:16:58;;;;;;;5.43;2.88;;;19.50;99.90;;;;;;5045051;28;20036;-42
2023/07/12 07:19:24;;;;;;;6.10;3.47;;;19.50;99.90;;;;;;5045529;28;20075;-42
2023/07/12 07:21:50;;;;;;;6.93;3.88;;;19.50;99.90;;;;;;5044637;28;20441;-42
2023/07/12 07:24:17;;;;;;;7.05;3.65;;;19.60;99.90;;;;;;5045511;28;20044;-42
2023/07/12 07:26:44;;;;;;;7.20;3.97;;;19.70;99.90;;;;;;5045028;28;20541;-42
2023/07/12 07:29:10;;;;;;;7.18;3.72;;;19.70;99.90;;;;;;5044495;28;20406;-42
2023/07/12 07:31:35;;;;;;;7.70;3.88;;;19.70;99.90;;;;;;5045153;28;20063;-42
2023/07/12 07:34:01;;;;;;;7.25;3.70;;;19.80;99.90;;;;;;5044233;28;20052;-42
2023/07/12 07:36:26;;;;;;;7.30;3.78;;;19.80;99.90;;;;;;5045045;28;20033;-42
2023/07/12 07:38:52;;;;;;;5.40;3.75;;;19.80;99.90;;;;;;5045671;28;20027;-42
2023/07/12 07:41:18;;;;;;;5.80;3.05;;;19.70;99.90;;;;;;5043991;28;20601;-42
2023/07/12 07:43:44;;;;;;;5.68;3.33;;;19.80;99.90;;;;;;5045391;28;20025;-41
2023/07/12 07:46:12;;;;;;;9.05;3.90;;;19.70;99.90;;;;;;5045099;28;20029;-42
2023/07/12 07:48:37;;;;;;;8.70;4.15;;;19.70;99.90;;;;;;5043861;28;20037;-42
2023/07/12 07:51:23;;;;;;;6.18;3.30;;;19.70;99.90;;;;;;5044847;28;20017;-42
2023/07/12 07:53:49;;;;;;;7.57;3.90;;;19.60;99.90;;;;;;5043189;28;20120;-42
2023/07/12 07:56:14;;;;;;;11.15;3.90;;;19.70;99.90;;;;;;5044153;28;20033;-42
2023/07/12 07:58:40;;;;;;;9.20;4.15;;;19.70;99.90;;;;;;5047563;28;20471;-42
2023/07/12 08:01:08;;;;;;;6.10;3.20;;;19.70;99.90;;;;;;5049037;28;20027;-42
2023/07/12 08:03:34;;;;;;;4.82;3.20;;;19.80;99.90;;;;;;5048680;28;20031;-42
2023/07/12 08:06:04;;;;;;;9.02;3.35;;;19.90;99.90;;;;;;5048704;28;20021;-42
2023/07/12 08:08:32;;;;;;;6.90;3.25;;;20.00;99.90;;;;;;5047792;28;20060;-42
2023/07/12 08:11:05;;;;;;;9.50;3.30;;;20.00;99.90;;;;;;5047939;28;20491;-41
2023/07/12 08:13:31;;;;;;;4.95;3.05;;;20.10;99.90;;;;;;5048451;28;20021;-42
2023/07/12 08:15:56;;;;;;;7.97;3.42;;;20.10;99.90;;;;;;5049223;28;20519;-42
2023/07/12 08:18:23;;;;;;;5.80;3.10;;;20.00;99.90;;;;;;5047558;28;20044;-42
2023/07/12 08:20:51;;;;;;;5.38;2.83;;;20.00;99.90;;;;;;5049279;28;20025;-42
2023/07/12 08:23:17;;;;;;;6.50;2.95;;;20.00;99.90;;;;;;5048058;28;20349;-42
2023/07/12 08:25:42;;;;;;;6.65;3.40;;;20.10;99.90;;;;;;5048729;28;20029;-42
2023/07/12 08:28:08;;;;;;;7.20;2.97;;;20.20;99.90;;;;;;5048666;28;20032;-42
2023/07/12 08:30:35;;;;;;;4.45;3.08;;;20.10;99.90;;;;;;5047321;28;20021;-43
2023/07/12 08:33:01;;;;;;;6.40;3.08;;;20.10;99.90;;;;;;5048594;28;20029;-42
2023/07/12 08:35:26;;;;;;;9.40;3.53;;;20.10;99.90;;;;;;5048841;28;20046;-42
2023/07/12 08:37:52;;;;;;;6.40;3.05;;;20.10;99.90;;;;;;5048302;28;20051;-42
2023/07/12 08:40:17;;;;;;;11.60;3.88;;;20.30;99.90;;;;;;5048197;28;20076;-42
2023/07/12 08:42:44;;;;;;;7.60;3.75;;;20.30;99.90;;;;;;5048303;28;20056;-43
2023/07/12 08:45:18;;;;;;;7.00;3.08;;;20.50;99.90;;;;;;5047210;28;20408;-42
2023/07/12 08:47:45;;;;;;;6.65;3.33;;;20.60;99.90;;;;;;5048694;28;20032;-42
2023/07/12 08:50:13;;;;;;;8.20;3.67;;;20.70;99.90;;;;;;5047966;28;20025;-42
2023/07/12 08:52:40;;;;;;;7.75;3.22;;;20.70;99.90;;;;;;5047437;28;20029;-42
2023/07/12 08:55:22;;;;;;;6.07;2.67;;;20.70;99.90;;;;;;5047619;28;20017;-41
2023/07/12 08:57:58;;;;;;;;;;;20.80;99.90;;;;;;5048226;28;20043;-42
2023/07/12 09:00:28;;;;;;;9.52;3.30;;;20.90;99.90;;;;;;5047437;28;19912;-42
2023/07/12 09:02:54;;;;;;;5.20;2.35;;;20.90;99.90;;;;;;5048249;28;20068;-42
2023/07/12 09:05:22;;;;;;;4.28;2.33;;;21.00;99.90;;;;;;5047297;28;20530;-42
2023/07/12 09:08:04;;;;;;;6.15;2.85;;;21.00;99.90;;;;;;5046834;28;20081;-42
2023/07/12 09:10:41;;;;;;;7.38;2.97;;;21.10;99.90;;;;;;5047416;28;20127;-42
2023/07/12 09:13:10;;;;;;;5.90;2.80;;;21.10;99.90;;;;;;5047221;28;20252;-43
2023/07/12 09:15:49;;;;;;;8.68;3.17;;;21.20;99.90;;;;;;5047816;28;20028;-42
2023/07/12 09:18:30;;;;;;;5.68;3.28;;;21.10;99.90;;;;;;5047121;28;20037;-42
2023/07/12 09:21:01;;;;;;;5.80;3.20;;;21.20;99.90;;;;;;5046536;28;20369;-42
2023/07/12 09:23:37;;;;;;;5.32;2.80;;;21.30;99.90;;;;;;5047501;28;20035;-42
2023/07/12 09:26:10;;;;;;;7.45;3.30;;;21.30;99.90;;;;;;5047635;28;20047;-42
2023/07/12 09:28:39;;;;;;;6.93;2.95;;;21.40;99.90;;;;;;5047169;28;20029;-42
2023/07/12 09:31:12;;;;;;;5.43;2.58;;;21.40;99.90;;;;;;5046823;28;20020;-42
2023/07/12 09:33:38;;;;;;;8.05;3.00;;;21.50;99.90;;;;;;5046449;28;20116;-42
2023/07/12 09:36:05;;;;;;;6.78;2.90;;;21.40;99.90;;;;;;5046868;28;20039;-42
2023/07/12 09:38:36;;;;;;;4.25;2.60;;;21.50;99.90;;;;;;5047089;28;20225;-42
2023/07/12 09:41:10;;;;;;;6.85;2.40;;;21.50;99.90;;;;;;5046135;28;20025;-42
2023/07/12 09:43:37;;;;;;;5.78;2.92;;;21.50;99.90;;;;;;5035578;28;20029;-42
2023/07/12 09:46:34;;;;;;;6.93;2.75;;;21.50;99.90;;;;;;5047193;28;20017;-42
2023/07/12 09:49:08;;;;;;;6.07;2.60;;;21.60;99.90;;;;;;5036741;28;20044;-42
2023/07/12 09:51:48;;;;;;;6.07;2.72;;;21.80;99.90;;;;;;5046878;28;20032;-42
2023/07/12 09:54:44;;;;;;;4.90;2.55;;;21.90;99.90;;;;;;5046870;28;20033;-42
2023/07/12 09:57:19;;;;;;;7.30;2.40;;;21.90;99.90;;;;;;5047005;28;20044;-41
2023/07/12 10:00:01;;;;;;;8.23;2.58;;;22.00;99.90;;;;;;5046797;28;20044;-42
2023/07/12 10:02:38;;;;;;;5.97;2.65;;;22.10;99.90;;;;;;5045890;28;20025;-42
2023/07/12 10:05:14;;;;;;;5.15;2.35;;;22.20;99.90;;;;;;5046922;28;20040;-41
2023/07/12 10:07:54;;;;;;;6.90;2.15;;;22.40;99.90;;;;;;5045713;28;20053;-42
2023/07/12 10:10:29;;;;;;;4.35;2.15;;;22.40;99.90;;;;;;5046003;28;20373;-42
2023/07/12 10:13:17;;;;;;;4.95;2.20;;;22.40;99.90;;;;;;5046778;28;20024;-42
2023/07/12 10:15:44;;;;;;;4.82;2.10;;;22.50;99.90;;;;;;5046266;28;20065;-42
2023/07/12 10:18:19;;;;;;;6.18;2.70;;;22.50;99.90;;;;;;5045095;28;20075;-42
2023/07/12 10:20:47;;;;;;;5.82;2.20;;;22.60;99.90;;;;;;5045909;28;20029;-45
2023/07/12 10:23:13;;;;;;;4.63;1.90;;;22.70;99.90;;;;;;5045152;28;20024;-42
2023/07/12 10:25:45;;;;;;;5.80;2.38;;;22.80;99.90;;;;;;5046212;28;20021;-42
2023/07/12 10:28:32;;;;;;;3.87;1.67;;;22.70;99.90;;;;;;5046602;28;20103;-42
2023/07/12 10:31:02;;;;;;;4.40;1.98;;;22.70;99.90;;;;;;5045644;28;20054;-42
2023/07/12 10:33:37;;;;;;;3.88;1.92;;;22.80;99.90;;;;;;5046800;28;20028;-43
2023/07/12 10:36:11;;;;;;;8.30;2.60;;;22.70;99.90;;;;;;5027420;28;20037;-42
2023/07/12 10:38:37;;;;;;;8.20;2.95;;;22.60;99.90;;;;;;5035926;28;20013;-43
2023/07/12 10:41:08;;;;;;;7.00;2.63;;;22.30;99.90;;;;;;5046254;28;20033;-42
2023/07/12 10:43:39;;;;;;;7.93;2.50;;;22.00;99.90;;;;;;5046391;28;20147;-42
2023/07/12 10:46:10;;;;;;;3.97;2.17;;;21.70;99.90;;;;;;5045484;28;20033;-42
2023/07/12 10:48:40;;;;;;;9.10;2.55;;;21.50;99.90;;;;;;5046117;28;20024;-42
2023/07/12 10:51:16;;;;;;;5.10;2.35;;;21.40;99.90;;;;;;5045487;28;20052;-42
2023/07/12 10:53:51;;;;;;;5.80;2.50;;;21.30;99.90;;;;;;5045471;28;20036;-42
2023/07/12 10:56:21;;;;;;;4.32;1.90;;;21.30;99.90;;;;;;5045278;28;20060;-42
2023/07/12 10:58:57;;;;;;;4.18;1.80;;;21.20;99.90;;;;;;5044761;28;20479;-42
2023/07/12 11:01:45;;;;;;;4.97;1.75;;;21.20;99.90;;;;;;5046117;28;20029;-42
2023/07/12 11:04:24;;;;;;;5.20;1.88;;;21.20;99.90;;;;;;5045712;28;20112;-42
2023/07/12 11:07:00;;;;;;;4.90;2.13;;;21.20;99.90;;;;;;5044645;28;20031;-42
2023/07/12 11:09:52;;;;;;;3.58;1.55;;;21.20;99.90;;;;;;5045627;28;20186;-43
2023/07/12 11:12:26;;;;;;;3.05;1.45;;;21.30;99.90;;;;;;5014378;28;20041;-42
2023/07/12 11:15:04;;;;;;;9.80;2.30;;;21.30;99.90;;;;;;5036278;28;20219;-41
2023/07/12 11:17:49;;;;;;;5.57;1.73;;;21.30;99.90;;;;;;5045768;28;20507;-41
2023/07/12 11:20:35;;;;;;;5.78;1.70;;;21.40;99.90;;;;;;5044505;28;20060;-43
2023/07/12 11:23:25;;;;;;;4.30;1.80;;;21.40;99.90;;;;;;5045535;28;20396;-43
2023/07/12 11:26:03;;;;;;;4.15;1.52;;;21.40;99.90;;;;;;5045316;28;20358;-42
2023/07/12 11:28:40;;;;;;;5.40;1.95;;;21.50;99.90;;;;;;5025360;28;20026;-43
2023/07/12 11:31:24;;;;;;;6.15;2.50;;;21.50;99.90;;;;;;5041340;28;20040;-43
2023/07/12 11:33:56;;;;;;;6.18;2.40;;;21.50;99.90;;;;;;5026732;28;20506;-44
2023/07/12 11:36:28;;;;;;;3.97;2.00;;;21.40;99.90;;;;;;5044946;28;20363;-43
2023/07/12 11:38:55;;;;;;;3.65;1.90;;;21.50;99.90;;;;;;5045180;28;20274;-43
2023/07/12 11:41:26;;;;;;;3.97;1.83;;;21.50;99.90;;;;;;5044399;28;20200;-43
2023/07/12 11:44:07;;;;;;;4.43;1.90;;;21.60;99.90;;;;;;5044473;28;20400;-43
2023/07/12 11:46:35;;;;;;;4.55;2.00;;;21.70;99.90;;;;;;5044364;28;20021;-43
2023/07/12 11:49:21;;;;;;;4.13;1.98;;;21.80;99.90;;;;;;5043766;28;20783;-42
2023/07/12 11:51:52;;;;;;;7.05;2.25;;;22.00;99.90;;;;;;5044614;28;20029;-43
2023/07/12 11:54:36;;;;;;;7.90;2.08;;;22.10;99.90;;;;;;5035691;28;20033;-43
2023/07/12 11:57:02;;;;;;;3.30;1.65;;;22.30;99.90;;;;;;5044278;28;20053;-43
2023/07/12 11:59:41;;;;;;;4.03;1.40;;;22.60;99.90;;;;;;5045816;28;20045;-43
2023/07/12 12:02:27;;;;;;;4.20;1.70;;;22.80;99.90;;;;;;5044599;28;20103;-43
2023/07/12 12:05:00;;;;;;;4.00;1.65;;;23.10;99.90;;;;;;5024799;28;20140;-43
2023/07/12 12:07:38;;;;;;;4.38;1.83;;;23.20;99.90;;;;;;5041377;28;20053;-42
2023/07/12 12:10:06;;;;;;;3.63;1.52;;;23.20;99.90;;;;;;5043609;28;20556;-42
2023/07/12 12:12:33;;;;;;;5.22;1.95;;;23.30;99.90;;;;;;5044425;28;20036;-42
2023/07/12 12:15:00;;;;;;;3.38;1.58;;;23.30;99.90;;;;;;5025212;28;20033;-42
2023/07/12 12:17:31;;;;;;;2.75;1.38;;;23.30;99.90;;;;;;5038501;28;20029;-42
2023/07/12 12:20:13;;;;;;;3.87;1.50;;;23.20;99.90;;;;;;5045062;28;20166;-41
2023/07/12 12:22:41;;;;;;;2.80;1.30;;;23.20;99.90;;;;;;5044028;28;20029;-42
2023/07/12 12:25:17;;;;;;;5.30;1.67;;;23.10;99.90;;;;;;5044840;28;20106;-41
2023/07/12 12:27:44;;;;;;;3.80;1.45;;;23.10;99.90;;;;;;5044941;28;20029;-42
2023/07/12 12:30:15;;;;;;;4.05;1.30;;;23.10;99.90;;;;;;5044879;28;20111;-42
2023/07/12 12:32:43;;;;;;;3.85;1.50;;;23.20;99.90;;;;;;5044794;28;20107;-42
2023/07/12 12:35:13;;;;;;;5.32;1.67;;;23.30;99.90;;;;;;5044958;28;20052;-42
2023/07/12 12:37:39;;;;;;;4.50;1.85;;;23.40;99.60;;;;;;5043696;28;20640;-42
2023/07/12 12:40:17;;;;;;;4.25;1.80;;;23.40;99.60;;;;;;5044325;28;20078;-43
2023/07/12 12:43:05;;;;;;;2.58;1.50;;;23.40;99.50;;;;;;5043818;28;20045;-42
2023/07/12 12:45:36;;;;;;;3.25;1.50;;;23.50;99.40;;;;;;5045871;28;20114;-43
2023/07/12 12:48:05;;;;;;;4.63;1.40;;;23.40;98.70;;;;;;5048703;28;20013;-42
2023/07/12 12:50:31;;;;;;;3.42;1.20;;;23.30;99.10;;;;;;5047963;28;20037;-42
2023/07/12 12:53:01;;;;;;;3.40;1.33;;;23.30;99.20;;;;;;5048313;28;20017;-42
2023/07/12 12:55:30;;;;;;;4.22;1.33;;;23.30;98.60;;;;;;5048675;28;20029;-42
2023/07/12 12:57:56;;;;;;;2.42;0.98;;;23.30;98.80;;;;;;5046798;28;20029;-42
2023/07/12 13:00:22;;;;;;;3.90;1.65;;;23.20;99.10;;;;;;5048296;28;20021;-42